createdAt,value
2019-01-11T00:00:24.490Z,1002.36
2019-01-11T00:01:24.475Z,1002.32
2019-01-11T00:02:24.466Z,1002.38
2019-01-11T00:03:24.456Z,1002.39
2019-01-11T00:04:24.443Z,1002.34
2019-01-11T00:05:24.432Z,1002.35
2019-01-11T00:06:24.421Z,1002.31
2019-01-11T00:07:24.413Z,1002.32
2019-01-11T00:08:24.399Z,1002.31
2019-01-11T00:09:24.390Z,1002.34
2019-01-11T00:10:24.382Z,1002.34
2019-01-11T00:11:24.372Z,1002.35
2019-01-11T00:12:24.357Z,1002.40
2019-01-11T00:13:24.347Z,1002.37
2019-01-11T00:14:24.348Z,1002.39
2019-01-11T00:15:24.327Z,1002.36
2019-01-11T00:16:24.315Z,1002.33
2019-01-11T00:17:24.301Z,1002.39
2019-01-11T00:18:24.294Z,1002.33
2019-01-11T00:19:24.292Z,1002.29
2019-01-11T00:20:24.273Z,1002.28
2019-01-11T00:21:24.263Z,1002.25
2019-01-11T00:22:24.248Z,1002.27
2019-01-11T00:23:24.245Z,1002.30
2019-01-11T00:24:24.234Z,1002.31
2019-01-11T00:25:24.219Z,1002.30
2019-01-11T00:26:24.212Z,1002.26
2019-01-11T00:27:24.197Z,1002.26
2019-01-11T00:28:24.191Z,1002.23
2019-01-11T00:29:24.174Z,1002.21
2019-01-11T00:30:24.167Z,1002.21
2019-01-11T00:31:24.153Z,1002.20
2019-01-11T00:32:24.150Z,1002.18
2019-01-11T00:33:24.133Z,1002.17
2019-01-11T00:34:24.123Z,1002.17
2019-01-11T00:35:24.117Z,1002.19
2019-01-11T00:36:24.100Z,1002.18
2019-01-11T00:37:24.089Z,1002.20
2019-01-11T00:38:24.081Z,1002.18
2019-01-11T00:39:24.071Z,1002.15
2019-01-11T00:40:24.055Z,1002.14
2019-01-11T00:41:24.050Z,1002.12
2019-01-11T00:42:24.036Z,1002.16
2019-01-11T00:43:24.025Z,1002.19
2019-01-11T00:44:24.015Z,1002.18
2019-01-11T00:45:24.003Z,1002.14
2019-01-11T00:46:23.996Z,1002.16
2019-01-11T00:47:23.982Z,1002.13
2019-01-11T00:48:23.971Z,1002.11
2019-01-11T00:49:23.960Z,1002.13
2019-01-11T00:50:23.961Z,1002.11
2019-01-11T00:51:23.941Z,1002.14
2019-01-11T00:52:23.929Z,1002.10
2019-01-11T00:53:23.917Z,1002.14
2019-01-11T00:54:23.908Z,1002.15
2019-01-11T00:55:23.898Z,1002.16
2019-01-11T00:56:23.890Z,1002.15
2019-01-11T00:57:23.877Z,1002.17
2019-01-11T00:58:23.865Z,1002.14
2019-01-11T00:59:23.854Z,1002.15
2019-01-11T01:00:24.145Z,1002.17
2019-01-11T01:01:23.831Z,1002.15
2019-01-11T01:02:23.825Z,1002.14
2019-01-11T01:03:23.810Z,1002.12
2019-01-11T01:04:23.802Z,1002.15
2019-01-11T01:05:23.791Z,1002.16
2019-01-11T01:06:23.778Z,1002.15
2019-01-11T01:07:23.769Z,1002.14
2019-01-11T01:08:23.757Z,1002.18
2019-01-11T01:09:23.754Z,1002.16
2019-01-11T01:10:23.736Z,1002.16
2019-01-11T01:11:23.725Z,1002.20
2019-01-11T01:12:23.714Z,1002.19
2019-01-11T01:13:23.702Z,1002.20
2019-01-11T01:14:23.694Z,1002.23
2019-01-11T01:15:23.685Z,1002.22
2019-01-11T01:16:23.672Z,1002.22
2019-01-11T01:17:23.659Z,1002.19
2019-01-11T01:18:23.659Z,1002.17
2019-01-11T01:19:23.639Z,1002.17
2019-01-11T01:20:23.628Z,1002.17
2019-01-11T01:21:23.619Z,1002.12
2019-01-11T01:22:23.609Z,1002.16
2019-01-11T01:23:23.595Z,1002.15
2019-01-11T01:24:23.586Z,1002.16
2019-01-11T01:25:23.574Z,1002.16
2019-01-11T01:26:23.561Z,1002.19
2019-01-11T01:27:23.554Z,1002.16
2019-01-11T01:28:23.543Z,1002.18
2019-01-11T01:29:23.532Z,1002.19
2019-01-11T01:30:23.521Z,1002.21
2019-01-11T01:31:23.511Z,1002.21
2019-01-11T01:32:23.500Z,1002.21
2019-01-11T01:33:23.491Z,1002.23
2019-01-11T01:34:23.481Z,1002.25
2019-01-11T01:35:23.466Z,1002.26
2019-01-11T01:36:23.457Z,1002.25
2019-01-11T01:37:23.448Z,1002.24
2019-01-11T01:38:23.435Z,1002.24
2019-01-11T01:39:23.433Z,1002.25
2019-01-11T01:40:23.415Z,1002.24
2019-01-11T01:41:23.407Z,1002.26
2019-01-11T01:42:23.392Z,1002.23
2019-01-11T01:43:23.382Z,1002.24
2019-01-11T01:44:23.373Z,1002.24
2019-01-11T01:45:23.362Z,1002.18
2019-01-11T01:46:23.349Z,1002.14
2019-01-11T01:47:23.340Z,1002.12
2019-01-11T01:48:23.329Z,1002.13
2019-01-11T01:49:26.496Z,1002.10
2019-01-11T01:50:23.307Z,1002.10
2019-01-11T01:51:23.300Z,1002.11
2019-01-11T01:52:23.284Z,1002.11
2019-01-11T01:53:23.270Z,1002.10
2019-01-11T01:54:23.264Z,1002.14
2019-01-11T01:55:23.265Z,1002.12
2019-01-11T01:56:23.245Z,1002.14
2019-01-11T01:57:23.232Z,1002.07
2019-01-11T01:58:23.223Z,1002.08
2019-01-11T01:59:23.211Z,1002.11
2019-01-11T02:00:23.202Z,1002.12
2019-01-11T02:01:23.188Z,1002.14
2019-01-11T02:02:23.176Z,1002.13
2019-01-11T02:03:23.166Z,1002.17
2019-01-11T02:04:23.161Z,1002.14
2019-01-11T02:05:23.145Z,1002.10
2019-01-11T02:06:23.137Z,1002.15
2019-01-11T02:07:23.123Z,1002.13
2019-01-11T02:08:23.112Z,1002.11
2019-01-11T02:09:23.105Z,1002.09
2019-01-11T02:10:23.084Z,1002.07
2019-01-11T02:11:23.073Z,1002.08
2019-01-11T02:12:23.071Z,1002.11
2019-01-11T02:13:23.059Z,1002.07
2019-01-11T02:14:23.047Z,1002.09
2019-01-11T02:15:23.038Z,1002.04
2019-01-11T02:16:23.027Z,1002.06
2019-01-11T02:17:23.015Z,1002.08
2019-01-11T02:18:23.006Z,1002.06
2019-01-11T02:19:23.012Z,1002.05
2019-01-11T02:20:22.986Z,1002.08
2019-01-11T02:21:22.974Z,1002.06
2019-01-11T02:22:22.969Z,1002.09
2019-01-11T02:23:22.951Z,1002.06
2019-01-11T02:24:22.940Z,1002.04
2019-01-11T02:25:22.928Z,1002.04
2019-01-11T02:26:22.918Z,1002.04
2019-01-11T02:27:22.909Z,1002.08
2019-01-11T02:28:22.896Z,1002.04
2019-01-11T02:29:22.886Z,1002.06
2019-01-11T02:30:22.875Z,1002.07
2019-01-11T02:31:22.876Z,1002.03
2019-01-11T02:32:22.854Z,1002.00
2019-01-11T02:33:25.005Z,1001.96
2019-01-11T02:34:22.832Z,1001.95
2019-01-11T02:35:22.824Z,1001.92
2019-01-11T02:36:22.811Z,1001.93
2019-01-11T02:37:22.800Z,1001.90
2019-01-11T02:38:22.791Z,1001.89
2019-01-11T02:39:22.783Z,1001.87
2019-01-11T02:40:22.771Z,1001.88
2019-01-11T02:41:22.759Z,1001.89
2019-01-11T02:42:22.747Z,1001.90
2019-01-11T02:43:22.735Z,1001.88
2019-01-11T02:44:22.723Z,1001.88
2019-01-11T02:45:22.718Z,1001.87
2019-01-11T02:46:22.712Z,1001.87
2019-01-11T02:47:22.694Z,1001.84
2019-01-11T02:48:22.680Z,1001.83
2019-01-11T02:49:22.672Z,1001.88
2019-01-11T02:50:22.662Z,1001.84
2019-01-11T02:51:22.648Z,1001.87
2019-01-11T02:52:22.640Z,1001.80
2019-01-11T02:53:22.630Z,1001.84
2019-01-11T02:54:22.618Z,1001.80
2019-01-11T02:55:22.612Z,1001.81
2019-01-11T02:56:22.595Z,1001.81
2019-01-11T02:57:22.583Z,1001.80
2019-01-11T02:58:22.581Z,1001.81
2019-01-11T02:59:22.563Z,1001.82
2019-01-11T03:00:22.552Z,1001.81
2019-01-11T03:01:22.542Z,1001.82
2019-01-11T03:02:22.534Z,1001.83
2019-01-11T03:03:22.522Z,1001.82
2019-01-11T03:04:22.517Z,1001.85
2019-01-11T03:05:22.511Z,1001.81
2019-01-11T03:06:22.490Z,1001.81
2019-01-11T03:07:22.480Z,1001.81
2019-01-11T03:08:22.478Z,1001.83
2019-01-11T03:09:22.457Z,1001.80
2019-01-11T03:10:22.447Z,1001.78
2019-01-11T03:11:22.436Z,1001.81
2019-01-11T03:12:22.427Z,1001.80
2019-01-11T03:13:22.415Z,1001.78
2019-01-11T03:14:22.405Z,1001.79
2019-01-11T03:15:22.398Z,1001.78
2019-01-11T03:16:22.381Z,1001.82
2019-01-11T03:17:22.374Z,1001.81
2019-01-11T03:18:22.360Z,1001.77
2019-01-11T03:19:22.349Z,1001.74
2019-01-11T03:20:22.343Z,1001.76
2019-01-11T03:21:22.327Z,1001.77
2019-01-11T03:22:22.314Z,1001.78
2019-01-11T03:23:22.309Z,1001.78
2019-01-11T03:24:22.289Z,1001.78
2019-01-11T03:25:22.281Z,1001.80
2019-01-11T03:26:22.278Z,1001.80
2019-01-11T03:27:22.260Z,1001.84
2019-01-11T03:28:22.249Z,1001.80
2019-01-11T03:29:22.240Z,1001.86
2019-01-11T03:30:22.230Z,1001.79
2019-01-11T03:31:22.218Z,1001.84
2019-01-11T03:32:22.210Z,1001.82
2019-01-11T03:33:22.193Z,1001.85
2019-01-11T03:34:22.190Z,1001.83
2019-01-11T03:35:22.178Z,1001.84
2019-01-11T03:36:22.166Z,1001.80
2019-01-11T03:37:22.154Z,1001.84
2019-01-11T03:38:22.148Z,1001.79
2019-01-11T03:39:22.134Z,1001.78
2019-01-11T03:40:22.121Z,1001.76
2019-01-11T03:41:22.115Z,1001.75
2019-01-11T03:42:22.101Z,1001.74
2019-01-11T03:43:22.089Z,1001.72
2019-01-11T03:44:22.080Z,1001.78
2019-01-11T03:45:22.070Z,1001.76
2019-01-11T03:46:22.057Z,1001.79
2019-01-11T03:47:22.056Z,1001.78
2019-01-11T03:48:22.038Z,1001.80
2019-01-11T03:49:22.029Z,1001.82
2019-01-11T03:50:22.013Z,1001.82
2019-01-11T03:51:22.004Z,1001.78
2019-01-11T03:52:21.991Z,1001.76
2019-01-11T03:53:21.983Z,1001.77
2019-01-11T03:54:21.971Z,1001.75
2019-01-11T03:55:21.959Z,1001.71
2019-01-11T03:56:21.949Z,1001.74
2019-01-11T03:57:21.938Z,1001.69
2019-01-11T03:58:21.936Z,1001.66
2019-01-11T03:59:21.959Z,1001.69
2019-01-11T04:00:21.921Z,1001.63
2019-01-11T04:01:21.894Z,1001.65
2019-01-11T04:02:21.883Z,1001.67
2019-01-11T04:03:21.874Z,1001.69
2019-01-11T04:04:21.859Z,1001.69
2019-01-11T04:05:21.857Z,1001.64
2019-01-11T04:06:21.841Z,1001.68
2019-01-11T04:07:21.829Z,1001.67
2019-01-11T04:08:21.816Z,1001.66
2019-01-11T04:09:21.808Z,1001.68
2019-01-11T04:10:21.798Z,1001.70
2019-01-11T04:11:21.786Z,1001.66
2019-01-11T04:12:21.776Z,1001.67
2019-01-11T04:13:21.768Z,1001.70
2019-01-11T04:14:21.753Z,1001.70
2019-01-11T04:15:21.747Z,1001.74
2019-01-11T04:16:21.733Z,1001.78
2019-01-11T04:17:21.728Z,1001.78
2019-01-11T04:18:21.713Z,1001.78
2019-01-11T04:19:21.700Z,1001.78
2019-01-11T04:20:21.687Z,1001.79
2019-01-11T04:21:21.679Z,1001.80
2019-01-11T04:22:21.670Z,1001.80
2019-01-11T04:23:21.660Z,1001.78
2019-01-11T04:24:21.646Z,1001.77
2019-01-11T04:25:21.635Z,1001.81
2019-01-11T04:26:21.629Z,1001.83
2019-01-11T04:27:21.618Z,1001.85
2019-01-11T04:28:21.604Z,1001.83
2019-01-11T04:29:21.592Z,1001.83
2019-01-11T04:30:21.589Z,1001.83
2019-01-11T04:31:21.572Z,1001.84
2019-01-11T04:32:21.563Z,1001.85
2019-01-11T04:33:21.551Z,1001.85
2019-01-11T04:34:21.541Z,1001.84
2019-01-11T04:35:21.529Z,1001.80
2019-01-11T04:36:21.516Z,1001.78
2019-01-11T04:37:21.504Z,1001.80
2019-01-11T04:38:21.499Z,1001.79
2019-01-11T04:39:21.490Z,1001.79
2019-01-11T04:40:21.476Z,1001.79
2019-01-11T04:41:21.466Z,1001.80
2019-01-11T04:42:21.455Z,1001.79
2019-01-11T04:43:21.442Z,1001.82
2019-01-11T04:44:21.432Z,1001.80
2019-01-11T04:45:21.423Z,1001.77
2019-01-11T04:46:21.413Z,1001.73
2019-01-11T04:47:21.411Z,1001.77
2019-01-11T04:48:21.389Z,1001.77
2019-01-11T04:49:21.371Z,1001.75
2019-01-11T04:50:21.367Z,1001.74
2019-01-11T04:51:21.356Z,1001.71
2019-01-11T04:52:21.343Z,1001.72
2019-01-11T04:53:21.368Z,1001.70
2019-01-11T04:54:21.319Z,1001.72
2019-01-11T04:55:21.310Z,1001.70
2019-01-11T04:56:21.305Z,1001.69
2019-01-11T04:57:21.288Z,1001.67
2019-01-11T04:58:21.282Z,1001.66
2019-01-11T04:59:21.262Z,1001.68
2019-01-11T05:00:21.252Z,1001.68
2019-01-11T05:01:21.244Z,1001.71
2019-01-11T05:02:21.234Z,1001.71
2019-01-11T05:03:21.217Z,1001.68
2019-01-11T05:04:21.205Z,1001.70
2019-01-11T05:05:21.201Z,1001.69
2019-01-11T05:06:21.184Z,1001.66
2019-01-11T05:07:21.169Z,1001.66
2019-01-11T05:08:21.159Z,1001.63
2019-01-11T05:09:21.148Z,1001.63
2019-01-11T05:10:21.139Z,1001.64
2019-01-11T05:11:21.126Z,1001.65
2019-01-11T05:12:21.109Z,1001.60
2019-01-11T05:13:21.100Z,1001.61
2019-01-11T05:14:21.093Z,1001.62
2019-01-11T05:15:21.079Z,1001.62
2019-01-11T05:16:21.068Z,1001.58
2019-01-11T05:17:21.057Z,1001.57
2019-01-11T05:18:21.047Z,1001.57
2019-01-11T05:19:21.036Z,1001.59
2019-01-11T05:20:21.024Z,1001.54
2019-01-11T05:21:21.012Z,1001.54
2019-01-11T05:22:21.004Z,1001.52
2019-01-11T05:23:20.995Z,1001.51
2019-01-11T05:24:20.979Z,1001.53
2019-01-11T05:25:20.969Z,1001.53
2019-01-11T05:26:20.956Z,1001.51
2019-01-11T05:27:20.948Z,1001.53
2019-01-11T05:28:20.939Z,1001.57
2019-01-11T05:29:20.925Z,1001.54
2019-01-11T05:30:20.913Z,1001.53
2019-01-11T05:31:20.903Z,1001.55
2019-01-11T05:32:20.890Z,1001.58
2019-01-11T05:33:20.882Z,1001.54
2019-01-11T05:34:20.868Z,1001.55
2019-01-11T05:35:20.856Z,1001.55
2019-01-11T05:36:20.851Z,1001.55
2019-01-11T05:37:20.833Z,1001.53
2019-01-11T05:38:20.824Z,1001.54
2019-01-11T05:39:20.811Z,1001.50
2019-01-11T05:40:20.801Z,1001.48
2019-01-11T05:41:20.790Z,1001.53
2019-01-11T05:42:20.797Z,1001.51
2019-01-11T05:43:20.768Z,1001.50
2019-01-11T05:44:20.757Z,1001.45
2019-01-11T05:45:20.752Z,1001.42
2019-01-11T05:46:20.734Z,1001.42
2019-01-11T05:47:20.724Z,1001.41
2019-01-11T05:48:20.712Z,1001.46
2019-01-11T05:49:20.705Z,1001.44
2019-01-11T05:50:24.239Z,1001.42
2019-01-11T05:51:20.680Z,1001.43
2019-01-11T05:52:20.671Z,1001.42
2019-01-11T05:53:20.660Z,1001.41
2019-01-11T05:54:20.654Z,1001.43
2019-01-11T05:55:20.637Z,1001.44
2019-01-11T05:56:20.630Z,1001.40
2019-01-11T05:57:20.614Z,1001.41
2019-01-11T05:58:20.601Z,1001.40
2019-01-11T05:59:20.596Z,1001.42
2019-01-11T06:00:20.583Z,1001.41
2019-01-11T06:01:20.576Z,1001.43
2019-01-11T06:02:20.562Z,1001.41
2019-01-11T06:03:20.556Z,1001.40
2019-01-11T06:04:20.536Z,1001.39
2019-01-11T06:05:20.529Z,1001.39
2019-01-11T06:06:20.521Z,1001.39
2019-01-11T06:07:20.507Z,1001.43
2019-01-11T06:08:20.495Z,1001.40
2019-01-11T06:09:20.483Z,1001.42
2019-01-11T06:10:20.472Z,1001.41
2019-01-11T06:11:20.483Z,1001.35
2019-01-11T06:12:20.455Z,1001.39
2019-01-11T06:13:20.447Z,1001.38
2019-01-11T06:14:20.431Z,1001.37
2019-01-11T06:15:20.416Z,1001.36
2019-01-11T06:16:20.411Z,1001.40
2019-01-11T06:17:20.401Z,1001.42
2019-01-11T06:18:20.386Z,1001.41
2019-01-11T06:19:20.372Z,1001.38
2019-01-11T06:20:20.362Z,1001.34
2019-01-11T06:21:20.357Z,1001.32
2019-01-11T06:22:20.346Z,1001.30
2019-01-11T06:23:20.331Z,1001.30
2019-01-11T06:24:20.319Z,1001.33
2019-01-11T06:25:20.316Z,1001.34
2019-01-11T06:26:20.298Z,1001.35
2019-01-11T06:27:20.286Z,1001.33
2019-01-11T06:28:20.274Z,1001.29
2019-01-11T06:29:20.265Z,1001.31
2019-01-11T06:30:20.288Z,1001.29
2019-01-11T06:31:20.244Z,1001.30
2019-01-11T06:32:20.235Z,1001.30
2019-01-11T06:33:20.218Z,1001.34
2019-01-11T06:34:20.218Z,1001.34
2019-01-11T06:35:20.212Z,1001.33
2019-01-11T06:36:20.189Z,1001.39
2019-01-11T06:37:20.178Z,1001.35
2019-01-11T06:38:20.169Z,1001.35
2019-01-11T06:39:20.160Z,1001.36
2019-01-11T06:40:20.158Z,1001.30
2019-01-11T06:41:20.138Z,1001.37
2019-01-11T06:42:20.123Z,1001.36
2019-01-11T06:43:20.118Z,1001.34
2019-01-11T06:44:20.102Z,1001.32
2019-01-11T06:45:20.094Z,1001.33
2019-01-11T06:46:20.082Z,1001.32
2019-01-11T06:47:20.069Z,1001.30
2019-01-11T06:48:20.063Z,1001.32
2019-01-11T06:49:20.054Z,1001.31
2019-01-11T06:50:20.032Z,1001.29
2019-01-11T06:51:20.029Z,1001.27
2019-01-11T06:52:20.014Z,1001.27
2019-01-11T06:53:20.009Z,1001.24
2019-01-11T06:54:19.993Z,1001.24
2019-01-11T06:55:19.983Z,1001.27
2019-01-11T06:56:19.973Z,1001.24
2019-01-11T06:57:19.962Z,1001.27
2019-01-11T06:58:19.953Z,1001.26
2019-01-11T06:59:19.939Z,1001.23
2019-01-11T07:00:19.929Z,1001.20
2019-01-11T07:01:19.917Z,1001.21
2019-01-11T07:02:19.907Z,1001.21
2019-01-11T07:03:19.900Z,1001.18
2019-01-11T07:04:19.886Z,1001.19
2019-01-11T07:05:19.878Z,1001.18
2019-01-11T07:06:19.870Z,1001.15
2019-01-11T07:07:19.855Z,1001.13
2019-01-11T07:08:19.844Z,1001.10
2019-01-11T07:09:19.828Z,1001.13
2019-01-11T07:10:19.819Z,1001.06
2019-01-11T07:11:19.810Z,1001.07
2019-01-11T07:12:19.797Z,1001.09
2019-01-11T07:13:19.787Z,1001.06
2019-01-11T07:14:19.777Z,1001.06
2019-01-11T07:15:19.768Z,1001.04
2019-01-11T07:16:19.757Z,1000.99
2019-01-11T07:17:19.745Z,1001.06
2019-01-11T07:18:19.736Z,1001.05
2019-01-11T07:19:19.723Z,1001.03
2019-01-11T07:20:19.711Z,1001.05
2019-01-11T07:21:19.703Z,1001.06
2019-01-11T07:22:19.689Z,1001.09
2019-01-11T07:23:19.679Z,1001.08
2019-01-11T07:24:19.666Z,1001.08
2019-01-11T07:25:19.658Z,1001.12
2019-01-11T07:26:19.648Z,1001.10
2019-01-11T07:27:19.637Z,1001.12
2019-01-11T07:28:19.625Z,1001.07
2019-01-11T07:29:19.613Z,1001.08
2019-01-11T07:30:19.602Z,1001.09
2019-01-11T07:31:19.596Z,1001.09
2019-01-11T07:32:19.582Z,1001.10
2019-01-11T07:33:19.572Z,1001.09
2019-01-11T07:34:19.559Z,1001.13
2019-01-11T07:35:19.549Z,1001.10
2019-01-11T07:36:19.540Z,1001.07
2019-01-11T07:37:19.528Z,1001.09
2019-01-11T07:38:19.524Z,1001.08
2019-01-11T07:39:19.504Z,1001.07
2019-01-11T07:40:19.494Z,1001.08
2019-01-11T07:41:19.487Z,1001.09
2019-01-11T07:42:19.473Z,1001.14
2019-01-11T07:43:19.461Z,1001.12
2019-01-11T07:44:19.451Z,1001.09
2019-01-11T07:45:19.452Z,1001.09
2019-01-11T07:46:19.429Z,1001.05
2019-01-11T07:47:19.422Z,1001.09
2019-01-11T07:48:19.409Z,1001.06
2019-01-11T07:49:23.109Z,1001.08
2019-01-11T07:50:19.386Z,1001.08
2019-01-11T07:51:19.376Z,1001.07
2019-01-11T07:52:19.365Z,1001.06
2019-01-11T07:53:19.358Z,1001.06
2019-01-11T07:54:19.339Z,1001.13
2019-01-11T07:55:19.332Z,1001.09
2019-01-11T07:56:19.336Z,1001.12
2019-01-11T07:57:19.311Z,1001.11
2019-01-11T07:58:19.301Z,1001.14
2019-01-11T07:59:19.295Z,1001.19
2019-01-11T08:00:19.281Z,1001.18
2019-01-11T08:01:19.267Z,1001.15
2019-01-11T08:02:19.260Z,1001.18
2019-01-11T08:03:19.246Z,1001.15
2019-01-11T08:04:19.232Z,1001.12
2019-01-11T08:05:19.225Z,1001.18
2019-01-11T08:06:19.213Z,1001.14
2019-01-11T08:07:19.203Z,1001.18
2019-01-11T08:08:19.192Z,1001.16
2019-01-11T08:09:19.180Z,1001.16
2019-01-11T08:10:19.172Z,1001.13
2019-01-11T08:11:19.164Z,1001.12
2019-01-11T08:12:19.150Z,1001.10
2019-01-11T08:13:19.136Z,1001.06
2019-01-11T08:14:19.128Z,1001.06
2019-01-11T08:15:19.116Z,1001.10
2019-01-11T08:16:19.104Z,1001.09
2019-01-11T08:17:19.096Z,1001.08
2019-01-11T08:18:19.083Z,1001.06
2019-01-11T08:19:19.079Z,1001.04
2019-01-11T08:20:19.063Z,1001.04
2019-01-11T08:21:19.054Z,1001.04
2019-01-11T08:22:19.041Z,1001.02
2019-01-11T08:23:19.029Z,1001.02
2019-01-11T08:24:19.020Z,1001.03
2019-01-11T08:25:19.007Z,1001.00
2019-01-11T08:26:18.996Z,1001.04
2019-01-11T08:27:18.986Z,1001.04
2019-01-11T08:28:18.982Z,1001.07
2019-01-11T08:29:18.970Z,1001.07
2019-01-11T08:30:18.951Z,1001.08
2019-01-11T08:31:18.940Z,1001.07
2019-01-11T08:32:18.931Z,1001.11
2019-01-11T08:33:18.934Z,1001.08
2019-01-11T08:34:18.910Z,1001.09
2019-01-11T08:35:18.900Z,1001.06
2019-01-11T08:36:18.890Z,1001.06
2019-01-11T08:37:18.881Z,1001.05
2019-01-11T08:38:18.872Z,1001.07
2019-01-11T08:39:18.860Z,1001.03
2019-01-11T08:40:18.840Z,1001.02
2019-01-11T08:41:18.833Z,1000.98
2019-01-11T08:42:18.824Z,1001.00
2019-01-11T08:43:18.814Z,1000.99
2019-01-11T08:44:18.800Z,1000.99
2019-01-11T08:45:18.792Z,1000.98
2019-01-11T08:46:18.782Z,1000.96
2019-01-11T08:47:18.773Z,1001.00
2019-01-11T08:48:18.760Z,1000.94
2019-01-11T08:49:18.748Z,1000.92
2019-01-11T08:50:18.737Z,1000.92
2019-01-11T08:51:18.735Z,1000.96
2019-01-11T08:52:18.716Z,1000.94
2019-01-11T08:53:18.702Z,1000.94
2019-01-11T08:54:18.694Z,1000.91
2019-01-11T08:55:18.684Z,1000.85
2019-01-11T08:56:18.674Z,1000.87
2019-01-11T08:57:18.662Z,1000.86
2019-01-11T08:58:18.652Z,1000.86
2019-01-11T08:59:18.638Z,1000.87
2019-01-11T09:00:18.636Z,1000.89
2019-01-11T09:01:18.618Z,1000.83
2019-01-11T09:02:18.607Z,1000.89
2019-01-11T09:03:18.601Z,1000.88
2019-01-11T09:04:18.585Z,1000.93
2019-01-11T09:05:18.576Z,1000.87
2019-01-11T09:06:18.561Z,1000.91
2019-01-11T09:07:18.559Z,1000.95
2019-01-11T09:08:18.541Z,1000.92
2019-01-11T09:09:18.540Z,1000.86
2019-01-11T09:10:22.751Z,1000.85
2019-01-11T09:11:18.512Z,1000.91
2019-01-11T09:12:18.497Z,1000.85
2019-01-11T09:13:18.489Z,1000.82
2019-01-11T09:14:18.477Z,1000.82
2019-01-11T09:15:18.467Z,1000.81
2019-01-11T09:16:20.827Z,1000.83
2019-01-11T09:17:18.449Z,1000.84
2019-01-11T09:18:18.438Z,1000.82
2019-01-11T09:19:18.426Z,1000.83
2019-01-11T09:20:18.412Z,1000.86
2019-01-11T09:21:18.400Z,1000.85
2019-01-11T09:22:18.390Z,1000.87
2019-01-11T09:23:18.381Z,1000.88
2019-01-11T09:24:18.370Z,1000.91
2019-01-11T09:25:18.360Z,1000.85
2019-01-11T09:26:18.348Z,1000.86
2019-01-11T09:27:18.341Z,1000.86
2019-01-11T09:28:18.324Z,1000.87
2019-01-11T09:29:18.322Z,1000.88
2019-01-11T09:30:18.305Z,1000.92
2019-01-11T09:31:18.295Z,1000.91
2019-01-11T09:32:18.286Z,1000.90
2019-01-11T09:33:20.616Z,1000.95
2019-01-11T09:34:18.258Z,1000.97
2019-01-11T09:35:18.249Z,1000.93
2019-01-11T09:36:18.242Z,1000.87
2019-01-11T09:37:18.228Z,1000.93
2019-01-11T09:38:18.274Z,1000.89
2019-01-11T09:39:18.208Z,1000.90
2019-01-11T09:40:18.196Z,1000.90
2019-01-11T09:41:18.193Z,1000.91
2019-01-11T09:42:18.173Z,1000.92
2019-01-11T09:43:18.164Z,1000.87
2019-01-11T09:44:18.159Z,1000.85
2019-01-11T09:45:18.144Z,1000.82
2019-01-11T09:46:18.133Z,1000.80
2019-01-11T09:47:18.120Z,1000.82
2019-01-11T09:48:18.109Z,1000.80
2019-01-11T09:49:18.099Z,1000.80
2019-01-11T09:50:18.098Z,1000.81
2019-01-11T09:51:18.075Z,1000.80
2019-01-11T09:52:18.065Z,1000.79
2019-01-11T09:53:18.054Z,1000.78
2019-01-11T09:54:18.047Z,1000.77
2019-01-11T09:55:18.035Z,1000.79
2019-01-11T09:56:18.023Z,1000.80
2019-01-11T09:57:18.010Z,1000.81
2019-01-11T09:58:18.001Z,1000.80
2019-01-11T09:59:17.989Z,1000.76
2019-01-11T10:00:17.977Z,1000.75
2019-01-11T10:01:17.971Z,1000.74
2019-01-11T10:02:17.961Z,1000.74
2019-01-11T10:03:17.951Z,1000.74
2019-01-11T10:04:17.939Z,1000.72
2019-01-11T10:05:17.928Z,1000.74
2019-01-11T10:06:17.916Z,1000.73
2019-01-11T10:07:17.912Z,1000.76
2019-01-11T10:08:17.897Z,1000.73
2019-01-11T10:09:17.888Z,1000.75
2019-01-11T10:10:17.879Z,1000.73
2019-01-11T10:11:17.858Z,1000.70
2019-01-11T10:12:17.848Z,1000.65
2019-01-11T10:13:17.851Z,1000.68
2019-01-11T10:14:17.829Z,1000.65
2019-01-11T10:15:17.818Z,1000.63
2019-01-11T10:16:17.811Z,1000.67
2019-01-11T10:17:17.797Z,1000.64
2019-01-11T10:18:17.788Z,1000.65
2019-01-11T10:19:17.781Z,1000.65
2019-01-11T10:20:17.765Z,1000.62
2019-01-11T10:21:22.312Z,1000.67
2019-01-11T10:22:17.742Z,1000.65
2019-01-11T10:23:17.732Z,1000.63
2019-01-11T10:24:17.721Z,1000.67
2019-01-11T10:25:17.708Z,1000.64
2019-01-11T10:26:17.699Z,1000.66
2019-01-11T10:27:17.688Z,1000.62
2019-01-11T10:28:17.676Z,1000.60
2019-01-11T10:29:17.664Z,1000.63
2019-01-11T10:30:17.653Z,1000.60
2019-01-11T10:31:17.651Z,1000.64
2019-01-11T10:32:17.634Z,1000.61
2019-01-11T10:33:17.623Z,1000.56
2019-01-11T10:34:17.612Z,1000.52
2019-01-11T10:35:17.601Z,1000.53
2019-01-11T10:36:17.592Z,1000.51
2019-01-11T10:37:17.583Z,1000.57
2019-01-11T10:38:17.565Z,1000.60
2019-01-11T10:39:17.555Z,1000.59
2019-01-11T10:40:17.551Z,1000.58
2019-01-11T10:41:17.536Z,1000.59
2019-01-11T10:42:17.528Z,1000.59
2019-01-11T10:43:17.515Z,1000.61
2019-01-11T10:44:17.505Z,1000.62
2019-01-11T10:45:17.497Z,1000.65
2019-01-11T10:46:17.504Z,1000.62
2019-01-11T10:47:17.477Z,1000.66
2019-01-11T10:48:17.468Z,1000.60
2019-01-11T10:49:17.455Z,1000.58
2019-01-11T10:50:17.444Z,1000.54
2019-01-11T10:51:19.044Z,1000.57
2019-01-11T10:52:17.418Z,1000.50
2019-01-11T10:53:17.406Z,1000.50
2019-01-11T10:54:17.396Z,1000.46
2019-01-11T10:55:17.388Z,1000.44
2019-01-11T10:56:17.371Z,1000.49
2019-01-11T10:57:17.363Z,1000.46
2019-01-11T10:58:17.357Z,1000.44
2019-01-11T10:59:17.342Z,1000.44
2019-01-11T11:00:17.332Z,1000.40
2019-01-11T11:01:17.322Z,1000.33
2019-01-11T11:02:17.310Z,1000.33
2019-01-11T11:03:17.301Z,1000.35
2019-01-11T11:04:17.287Z,1000.31
2019-01-11T11:05:17.279Z,1000.27
2019-01-11T11:06:17.268Z,1000.21
2019-01-11T11:07:17.255Z,1000.19
2019-01-11T11:08:17.245Z,1000.20
2019-01-11T11:09:17.236Z,1000.21
2019-01-11T11:10:17.222Z,1000.21
2019-01-11T11:11:17.213Z,1000.20
2019-01-11T11:12:17.213Z,1000.16
2019-01-11T11:13:17.188Z,1000.22
2019-01-11T11:14:17.180Z,1000.18
2019-01-11T11:15:17.173Z,1000.17
2019-01-11T11:16:17.159Z,1000.22
2019-01-11T11:17:17.149Z,1000.17
2019-01-11T11:18:17.137Z,1000.23
2019-01-11T11:19:17.127Z,1000.22
2019-01-11T11:20:17.119Z,1000.24
2019-01-11T11:21:17.104Z,1000.28
2019-01-11T11:22:17.098Z,1000.31
2019-01-11T11:23:17.085Z,1000.28
2019-01-11T11:24:17.072Z,1000.29
2019-01-11T11:25:17.060Z,1000.26
2019-01-11T11:26:17.050Z,1000.23
2019-01-11T11:27:17.041Z,1000.21
2019-01-11T11:28:17.030Z,1000.29
2019-01-11T11:29:17.017Z,1000.24
2019-01-11T11:30:17.007Z,1000.24
2019-01-11T11:31:17.003Z,1000.25
2019-01-11T11:32:16.985Z,1000.18
2019-01-11T11:33:16.976Z,1000.16
2019-01-11T11:34:16.962Z,1000.19
2019-01-11T11:35:16.955Z,1000.20
2019-01-11T11:36:16.941Z,1000.15
2019-01-11T11:37:17.855Z,1000.14
2019-01-11T11:38:16.920Z,1000.12
2019-01-11T11:39:16.914Z,1000.15
2019-01-11T11:40:16.901Z,1000.16
2019-01-11T11:41:16.897Z,1000.10
2019-01-11T11:42:17.001Z,1000.06
2019-01-11T11:43:16.867Z,1000.07
2019-01-11T11:44:16.856Z,1000.10
2019-01-11T11:45:16.847Z,1000.09
2019-01-11T11:46:16.834Z,1000.07
2019-01-11T11:47:16.822Z,1000.09
2019-01-11T11:48:16.813Z,1000.04
2019-01-11T11:49:16.802Z,1000.07
2019-01-11T11:50:16.790Z,1000.03
2019-01-11T11:51:16.782Z,1000.00
2019-01-11T11:52:16.769Z,999.98
2019-01-11T11:53:16.766Z,999.97
2019-01-11T11:54:16.748Z,999.94
2019-01-11T11:55:16.737Z,999.93
2019-01-11T11:56:16.727Z,999.93
2019-01-11T11:57:16.715Z,999.93
2019-01-11T11:58:16.708Z,999.92
2019-01-11T11:59:16.694Z,999.92
2019-01-11T12:00:16.680Z,999.96
2019-01-11T12:01:16.672Z,999.92
2019-01-11T12:02:19.370Z,999.95
2019-01-11T12:03:16.651Z,999.89
2019-01-11T12:04:16.646Z,999.91
2019-01-11T12:05:16.628Z,999.90
2019-01-11T12:06:16.616Z,999.87